Time;durP1;ratioP1;P1;durP2;ratioP2;P2;SDS_P1;SDS_P2;PMS_P1;PMS_P2;Temp;Humidity;BMP_temperature;BMP_pressure;BME280_temperature;BME280_humidity;BME280_pressure;Samples;Min_cycle;Max_cycle;Signal;HPM_P1;HPM_P2
2021/11/08 00:04:42;;;;;;;8.20;3.60;;;;;;;8.37;77.01;100544.38;10326282;28;20054;-63
2021/11/08 00:09:45;;;;;;;8.85;3.17;;;;;;;8.35;76.19;100548.06;10327295;28;20139;-64
2021/11/08 00:14:48;;;;;;;10.30;3.65;;;;;;;8.25;76.36;100551.34;10324791;28;20135;-63
2021/11/08 00:24:57;;;;;;;9.27;4.70;;;;;;;8.00;77.10;100551.25;10320605;28;20128;-64
2021/11/08 00:29:58;;;;;;;8.05;3.85;;;;;;;7.93;78.81;100554.31;10325124;28;20108;-64
2021/11/08 00:35:00;;;;;;;8.30;4.13;;;;;;;7.96;78.25;100566.50;10323809;28;20124;-63
2021/11/08 00:40:04;;;;;;;6.65;3.80;;;;;;;7.89;78.42;100570.50;10324548;28;20105;-64
2021/11/08 00:45:07;;;;;;;6.13;3.87;;;;;;;8.01;77.64;100572.34;10322042;28;20511;-64
2021/11/08 00:50:09;;;;;;;9.77;3.75;;;;;;;7.94;78.27;100565.75;10321789;28;20046;-63
2021/11/08 00:55:11;;;;;;;8.25;4.30;;;;;;;7.89;78.36;100578.47;10318503;28;20046;-63
2021/11/08 01:00:17;;;;;;;8.40;3.63;;;;;;;7.93;78.58;100579.97;10324350;28;20112;-63
2021/11/08 01:05:19;;;;;;;8.80;4.47;;;;;;;7.93;77.92;100580.81;10325814;28;20042;-64
2021/11/08 01:10:21;;;;;;;10.55;3.83;;;;;;;7.91;78.32;100584.50;10326313;28;20042;-64
2021/11/08 01:15:22;;;;;;;8.40;4.13;;;;;;;7.90;78.24;100596.06;10327601;28;20070;-64
2021/11/08 01:20:31;;;;;;;10.90;4.47;;;;;;;7.95;77.85;100586.00;10329541;28;20058;-63
2021/11/08 01:25:33;;;;;;;11.68;3.97;;;;;;;7.78;77.84;100593.25;10325497;28;20045;-63
2021/11/08 01:30:35;;;;;;;11.48;4.05;;;;;;;7.84;78.04;100597.31;10322514;28;20575;-64
2021/11/08 01:35:40;;;;;;;6.70;3.78;;;;;;;7.87;77.79;100594.47;10345385;28;21641;-63
2021/11/08 01:40:43;;;;;;;12.63;3.95;;;;;;;7.81;77.65;100592.19;10318210;28;20100;-63
2021/11/08 01:45:45;;;;;;;8.60;4.03;;;;;;;7.87;77.61;100593.63;10321211;28;20060;-63
2021/11/08 01:50:47;;;;;;;10.82;4.35;;;;;;;7.94;77.32;100597.56;10322392;28;20047;-63
2021/11/08 01:55:50;;;;;;;7.82;3.22;;;;;;;8.01;77.72;100605.97;10318759;28;20053;-65
2021/11/08 02:00:54;;;;;;;11.02;4.20;;;;;;;8.12;78.08;100608.78;10324099;28;20050;-64
2021/11/08 02:05:55;;;;;;;10.23;4.25;;;;;;;8.17;76.90;100609.34;10326531;28;20061;-63
2021/11/08 02:10:57;;;;;;;8.52;3.63;;;;;;;8.26;77.39;100599.94;10325470;28;20045;-64
2021/11/08 02:15:58;;;;;;;8.30;4.10;;;;;;;8.30;76.33;100604.94;10323218;28;20126;-65
2021/11/08 02:21:02;;;;;;;10.32;3.60;;;;;;;8.35;77.32;100593.16;10324062;28;20046;-63
2021/11/08 02:26:07;;;;;;;7.27;2.87;;;;;;;8.42;76.20;100611.25;10322406;28;20042;-63
2021/11/08 02:31:09;;;;;;;9.00;3.63;;;;;;;8.45;75.52;100612.88;10319200;28;20080;-68
2021/11/08 02:36:11;;;;;;;11.98;3.38;;;;;;;8.48;76.07;100617.97;10322869;28;20462;-64
2021/11/08 02:41:15;;;;;;;12.43;3.40;;;;;;;8.51;76.43;100616.94;10318560;28;20138;-63
2021/11/08 02:46:20;;;;;;;7.65;3.42;;;;;;;8.65;76.44;100614.22;10319347;28;20092;-64
2021/11/08 02:51:24;;;;;;;9.00;4.53;;;;;;;8.69;75.92;100620.16;10316989;28;20043;-64
2021/11/08 02:56:26;;;;;;;9.57;3.65;;;;;;;8.60;74.79;100618.97;10318948;28;20088;-64
2021/11/08 03:01:28;;;;;;;12.70;4.25;;;;;;;8.34;75.33;100623.31;10323549;28;20054;-63
2021/11/08 03:06:31;;;;;;;6.55;3.33;;;;;;;8.35;76.11;100631.16;10323288;28;20054;-67
2021/11/08 03:11:33;;;;;;;8.50;4.25;;;;;;;8.19;77.00;100630.47;10320183;28;20053;-63
2021/11/08 03:21:40;;;;;;;9.18;3.72;;;;;;;8.37;76.81;100629.25;10327582;28;20096;-64
2021/11/08 03:26:48;;;;;;;10.38;3.67;;;;;;;8.35;76.13;100630.31;10320674;28;20399;-64
2021/11/08 03:31:51;;;;;;;8.23;3.67;;;;;;;8.17;77.31;100621.72;10322343;28;20536;-65
2021/11/08 03:36:52;;;;;;;11.85;4.40;;;;;;;8.22;77.26;100624.97;10325951;28;20165;-63
2021/11/08 03:41:54;;;;;;;8.52;4.28;;;;;;;8.25;77.28;100622.94;10321603;28;20062;-63
2021/11/08 03:46:55;;;;;;;7.30;3.55;;;;;;;8.32;77.15;100639.34;10325674;28;20046;-63
2021/11/08 03:51:57;;;;;;;11.80;4.22;;;;;;;8.38;76.72;100646.03;10328869;28;20070;-63
2021/11/08 03:56:59;;;;;;;10.90;4.00;;;;;;;8.24;76.81;100646.91;10332550;28;20123;-63
2021/11/08 04:02:01;;;;;;;9.85;4.00;;;;;;;8.11;76.60;100655.66;10328255;28;20059;-64
2021/11/08 04:07:02;;;;;;;9.25;4.40;;;;;;;7.79;77.95;100666.50;10327388;28;20096;-64
2021/11/08 04:12:05;;;;;;;9.65;4.63;;;;;;;7.98;78.02;100670.66;10327824;28;20053;-63
2021/11/08 04:17:06;;;;;;;9.10;4.20;;;;;;;8.07;77.14;100675.38;10327260;28;20061;-63
2021/11/08 04:22:08;;;;;;;9.95;4.35;;;;;;;8.18;77.04;100679.13;10326321;28;20065;-61
2021/11/08 04:27:10;;;;;;;6.45;3.97;;;;;;;8.27;77.08;100670.59;10321523;28;20129;-63
2021/11/08 04:32:12;;;;;;;9.95;4.28;;;;;;;8.31;76.64;100678.25;10328729;28;20135;-64
2021/11/08 04:53:35;;;;;;;11.18;4.13;;;;;;;8.52;75.94;100677.00;10323979;28;20096;-63
2021/11/08 05:25:07;;;;;;;10.30;4.65;;;;;;;7.81;76.94;100706.16;10316440;28;20073;-62
2021/11/08 05:30:10;;;;;;;13.52;5.03;;;;;;;7.68;77.08;100711.34;10324195;28;20042;-62
2021/11/08 05:35:14;;;;;;;12.82;5.68;;;;;;;7.59;78.05;100711.91;10322303;28;20070;-62
2021/11/08 05:40:21;;;;;;;11.20;4.82;;;;;;;7.70;76.92;100714.78;10320726;28;20104;-62
2021/11/08 05:45:30;;;;;;;14.25;5.25;;;;;;;7.61;77.31;100715.31;10319627;28;20488;-62
2021/11/08 05:50:34;;;;;;;15.73;5.15;;;;;;;7.57;77.68;100709.38;10318732;28;20046;-62
2021/11/08 05:55:43;;;;;;;14.13;5.38;;;;;;;7.73;78.05;100714.59;10321308;28;20042;-62
2021/11/08 06:53:36;;;;;;;13.75;5.93;;;;;;;7.83;77.46;100761.72;10321362;28;20045;-63
2021/11/08 06:58:38;;;;;;;13.18;5.20;;;;;;;7.72;77.17;100765.03;10330192;28;20128;-62
2021/11/08 07:03:40;;;;;;;11.65;6.38;;;;;;;7.68;77.71;100779.41;10325434;28;20101;-59
2021/11/08 07:08:42;;;;;;;14.18;6.10;;;;;;;7.58;78.79;100773.78;10326280;28;20073;-59
2021/11/08 07:13:45;;;;;;;10.27;5.30;;;;;;;7.61;78.52;100789.50;10325316;28;20104;-58
2021/11/08 07:18:46;;;;;;;13.50;5.82;;;;;;;7.89;78.03;100803.75;10323494;28;20046;-59
2021/11/08 07:23:48;;;;;;;12.77;5.72;;;;;;;7.87;77.33;100795.06;10326332;28;20783;-58
2021/11/08 07:28:49;;;;;;;12.40;5.57;;;;;;;7.78;77.26;100807.91;10322991;28;20057;-62
2021/11/08 07:33:51;;;;;;;14.00;5.75;;;;;;;7.83;77.31;100810.28;10327176;28;20069;-62
2021/11/08 07:38:53;;;;;;;14.45;5.93;;;;;;;7.86;77.85;100817.19;10325459;28;20045;-62
2021/11/08 07:43:54;;;;;;;15.27;6.03;;;;;;;8.08;77.48;100828.22;10323332;28;20123;-62
2021/11/08 07:48:56;;;;;;;15.55;5.55;;;;;;;8.18;76.93;100825.00;10326221;28;20168;-63
2021/11/08 07:53:58;;;;;;;9.52;5.47;;;;;;;8.18;76.81;100825.88;10324045;28;20073;-62
2021/11/08 07:58:59;;;;;;;15.40;6.90;;;;;;;8.14;76.04;100834.94;10330342;28;20181;-62
2021/11/08 08:04:01;;;;;;;11.38;6.13;;;;;;;8.11;76.79;100833.31;10325370;28;20089;-64
2021/11/08 08:09:04;;;;;;;13.40;6.78;;;;;;;8.16;75.80;100840.16;10323593;28;20515;-62
2021/11/08 08:14:05;;;;;;;14.70;6.65;;;;;;;8.11;76.11;100841.28;10322838;28;20259;-63
2021/11/08 08:19:07;;;;;;;14.65;6.35;;;;;;;8.18;77.18;100846.22;10326278;28;20546;-64
2021/11/08 08:24:08;;;;;;;13.20;5.65;;;;;;;8.42;75.71;100847.38;10327827;28;20075;-63
2021/11/08 08:29:12;;;;;;;10.93;6.50;;;;;;;8.59;76.28;100840.19;10337009;28;20056;-63
2021/11/08 08:34:15;;;;;;;10.70;6.33;;;;;;;8.81;75.47;100840.53;10328357;28;20061;-62
2021/11/08 08:39:17;;;;;;;13.43;6.20;;;;;;;9.09;75.07;100846.72;10335287;28;20521;-63
2021/11/08 08:44:19;;;;;;;12.15;5.75;;;;;;;9.32;74.50;100853.19;10329833;28;20062;-63
2021/11/08 08:49:22;;;;;;;14.80;6.22;;;;;;;9.39;72.48;100848.31;10330077;28;20173;-63
2021/11/08 08:54:24;;;;;;;12.30;6.40;;;;;;;9.67;72.14;100857.13;10332567;28;20128;-63
2021/11/08 08:59:26;;;;;;;12.95;6.60;;;;;;;10.07;71.94;100862.38;10335677;28;20108;-63
2021/11/08 09:04:28;;;;;;;12.80;6.20;;;;;;;10.12;71.26;100867.38;10335362;28;20100;-64
2021/11/08 09:09:30;;;;;;;17.00;7.10;;;;;;;10.05;70.50;100874.94;10331887;28;20525;-63
2021/11/08 09:14:34;;;;;;;11.73;6.90;;;;;;;10.01;71.08;100884.06;10334459;28;20522;-62
2021/11/08 09:19:35;;;;;;;12.05;6.75;;;;;;;9.98;70.91;100884.28;10332576;28;20081;-63
2021/11/08 09:24:37;;;;;;;15.40;7.20;;;;;;;10.08;72.05;100880.03;10329406;28;20626;-63
2021/11/08 09:29:39;;;;;;;13.30;7.93;;;;;;;10.31;69.97;100877.59;10329655;28;20077;-63
2021/11/08 09:34:46;;;;;;;15.80;7.47;;;;;;;10.36;70.50;100888.84;10331311;28;20554;-63
2021/11/08 09:39:48;;;;;;;14.02;7.55;;;;;;;10.45;69.62;100888.19;10322469;28;20128;-63
2021/11/08 09:44:50;;;;;;;11.75;6.93;;;;;;;10.78;67.90;100886.75;10330442;28;20047;-63
2021/11/08 09:49:53;;;;;;;17.48;8.15;;;;;;;10.95;67.63;100886.38;10330472;28;20089;-64
2021/11/08 09:54:56;;;;;;;13.77;7.32;;;;;;;12.08;64.57;100885.25;10331358;28;20057;-62
2021/11/08 09:59:57;;;;;;;12.13;7.22;;;;;;;11.99;65.13;100882.31;10328151;28;20275;-63
2021/11/08 10:05:06;;;;;;;15.18;7.78;;;;;;;11.57;64.59;100879.22;10326011;28;20057;-63
2021/11/08 10:10:08;;;;;;;14.32;6.95;;;;;;;11.61;66.18;100878.03;10326849;28;20073;-63
2021/11/08 10:15:10;;;;;;;12.85;7.00;;;;;;;11.66;65.79;100883.00;10327073;28;20056;-65
2021/11/08 10:20:27;;;;;;;14.10;7.25;;;;;;;11.74;65.41;100887.78;10326107;28;20511;-63
2021/11/08 10:25:31;;;;;;;17.95;6.85;;;;;;;11.95;63.90;100885.31;10332013;28;20057;-64
2021/11/08 10:30:36;;;;;;;14.87;7.03;;;;;;;12.97;60.84;100883.59;10334629;28;20654;-63
2021/11/08 10:35:49;;;;;;;13.05;6.60;;;;;;;13.85;58.67;100879.06;10334080;28;20316;-63
2021/11/08 10:40:57;;;;;;;12.77;6.85;;;;;;;13.08;60.00;100883.56;10328170;28;20147;-65
2021/11/08 10:46:07;;;;;;;17.20;6.97;;;;;;;12.60;62.41;100885.69;10329555;28;20172;-63
2021/11/08 10:51:10;;;;;;;13.02;6.32;;;;;;;12.12;63.42;100868.03;10332882;28;20061;-64
2021/11/08 10:56:14;;;;;;;12.80;5.47;;;;;;;11.82;64.40;100872.06;10330327;28;20152;-63
2021/11/08 11:01:39;;;;;;;14.93;6.23;;;;;;;11.66;64.05;100883.00;10328977;28;20046;-63
2021/11/08 11:06:50;;;;;;;11.95;5.55;;;;;;;11.48;65.42;100866.56;10332950;28;20172;-67
2021/11/08 11:12:05;;;;;;;13.35;6.35;;;;;;;11.46;64.98;100858.69;10330280;28;20064;-64
2021/11/08 11:17:13;;;;;;;12.02;6.03;;;;;;;11.61;65.53;100851.38;10322893;28;20053;-63
2021/11/08 11:22:20;;;;;;;14.02;5.78;;;;;;;11.78;65.51;100843.91;10327884;28;20137;-64
2021/11/08 11:27:25;;;;;;;17.15;6.95;;;;;;;11.80;64.53;100850.81;10327967;28;20050;-64
2021/11/08 11:32:27;;;;;;;14.70;6.40;;;;;;;11.93;65.49;100856.09;10325946;28;20057;-63
2021/11/08 11:37:29;;;;;;;16.23;6.38;;;;;;;12.05;64.41;100848.13;10325229;28;20088;-64
2021/11/08 11:42:31;;;;;;;14.10;7.07;;;;;;;11.84;63.37;100846.09;10329122;28;20060;-63
2021/11/08 11:47:33;;;;;;;14.88;7.20;;;;;;;11.67;64.33;100845.56;10328830;28;20054;-62
2021/11/08 11:52:41;;;;;;;15.75;5.32;;;;;;;11.58;64.93;100846.25;10329999;28;20133;-63
2021/11/08 11:57:43;;;;;;;13.13;4.68;;;;;;;11.53;63.61;100843.09;10335821;28;20127;-63
2021/11/08 12:02:44;;;;;;;12.80;5.68;;;;;;;11.36;64.28;100851.50;10338687;28;20076;-63
2021/11/08 12:07:53;;;;;;;14.20;5.95;;;;;;;11.45;64.59;100848.16;10331374;28;20061;-63
2021/11/08 12:12:54;;;;;;;13.82;5.80;;;;;;;11.33;63.63;100831.25;10332216;28;20065;-62
2021/11/08 12:18:06;;;;;;;11.57;4.55;;;;;;;11.45;64.53;100829.47;10326128;28;20046;-63
2021/11/08 12:23:28;;;;;;;10.18;5.00;;;;;;;11.51;64.60;100845.03;10330574;28;20133;-62
2021/11/08 12:28:31;;;;;;;11.18;4.53;;;;;;;11.32;64.62;100849.06;10327828;28;20077;-63
2021/11/08 12:33:38;;;;;;;8.45;3.90;;;;;;;11.30;64.62;100851.00;10330235;28;20049;-62
2021/11/08 12:39:07;;;;;;;12.15;4.40;;;;;;;11.34;64.54;100848.13;10327410;28;20094;-62
2021/11/08 12:44:09;;;;;;;11.30;4.70;;;;;;;11.31;63.81;100844.69;10321194;28;20161;-63
2021/11/08 12:49:20;;;;;;;10.68;4.25;;;;;;;11.34;64.67;100837.44;10329877;28;20362;-63
2021/11/08 12:54:22;;;;;;;13.50;5.32;;;;;;;11.51;64.28;100834.34;10331713;28;20062;-62
2021/11/08 12:59:26;;;;;;;9.73;4.68;;;;;;;11.94;62.01;100841.78;10330695;28;20168;-65
2021/11/08 13:04:32;;;;;;;12.55;4.45;;;;;;;12.46;62.05;100826.22;10331855;28;20701;-64
2021/11/08 13:09:40;;;;;;;12.02;4.50;;;;;;;13.26;59.79;100834.91;10325459;28;20135;-63
2021/11/08 13:14:44;;;;;;;9.90;4.38;;;;;;;13.00;60.15;100819.22;10326959;28;20116;-62
2021/11/08 13:19:53;;;;;;;11.65;4.75;;;;;;;12.81;59.56;100819.00;10325611;28;20471;-63
2021/11/08 13:25:27;;;;;;;12.35;4.55;;;;;;;12.55;60.76;100827.31;10328004;28;20765;-63
2021/11/08 13:30:57;;;;;;;10.35;4.10;;;;;;;12.27;61.79;100832.13;10325093;28;20053;-62
2021/11/08 13:35:59;;;;;;;7.82;4.05;;;;;;;12.14;61.27;100836.72;10322602;28;20068;-61
2021/11/08 13:41:07;;;;;;;7.43;3.20;;;;;;;11.96;62.45;100836.34;10323317;28;20064;-63
2021/11/08 13:46:22;;;;;;;9.93;3.60;;;;;;;11.81;63.09;100841.00;10321461;28;20049;-63
2021/11/08 13:51:32;;;;;;;13.23;6.20;;;;;;;11.80;62.67;100847.28;10320655;28;20619;-62
2021/11/08 13:56:37;;;;;;;9.88;3.80;;;;;;;11.78;62.52;100846.56;10321676;28;20179;-62
2021/11/08 14:01:45;;;;;;;11.02;4.30;;;;;;;12.04;62.28;100852.63;10328606;28;20124;-63
2021/11/08 14:06:47;;;;;;;10.57;3.20;;;;;;;12.40;60.84;100837.38;10329493;28;20073;-63
2021/11/08 14:11:54;;;;;;;9.98;4.10;;;;;;;12.28;60.65;100849.88;10327931;28;20053;-63
2021/11/08 14:17:25;;;;;;;11.20;3.63;;;;;;;11.98;60.64;100837.94;10335079;28;20124;-66
2021/11/08 14:22:29;;;;;;;8.07;3.00;;;;;;;11.77;62.70;100828.84;10326079;28;20120;-62
2021/11/08 14:27:34;;;;;;;9.30;3.58;;;;;;;11.63;61.78;100835.25;10330214;28;20056;-62
2021/11/08 14:32:36;;;;;;;8.55;3.40;;;;;;;11.48;62.90;100835.47;10328120;28;20119;-62
2021/11/08 14:38:12;;;;;;;9.45;3.25;;;;;;;11.40;63.32;100826.31;10324040;28;20057;-63
2021/11/08 14:43:19;;;;;;;9.48;5.05;;;;;;;11.31;63.50;100830.53;10328590;28;20475;-63
2021/11/08 14:48:23;;;;;;;8.02;4.25;;;;;;;11.28;64.09;100838.75;10324327;28;20045;-62
2021/11/08 14:53:24;;;;;;;13.23;3.65;;;;;;;11.29;64.76;100848.47;10325564;28;20534;-63
2021/11/08 14:58:26;;;;;;;7.45;3.67;;;;;;;11.14;65.31;100845.94;10330440;28;20168;-65
2021/11/08 15:03:28;;;;;;;9.95;3.90;;;;;;;11.09;66.00;100845.44;10327777;28;20131;-64
2021/11/08 15:08:29;;;;;;;12.68;4.97;;;;;;;11.10;66.74;100848.94;10321938;28;20057;-62
2021/11/08 15:13:31;;;;;;;9.23;4.22;;;;;;;11.04;65.92;100857.41;10319421;28;20049;-62
2021/11/08 15:18:32;;;;;;;13.32;4.57;;;;;;;10.94;65.99;100868.72;10315474;28;20688;-62
2021/11/08 15:23:43;;;;;;;10.88;4.78;;;;;;;10.93;65.96;100871.50;10319867;28;20128;-63
2021/11/08 15:28:47;;;;;;;10.07;4.07;;;;;;;10.92;66.85;100881.28;10335511;28;20062;-69
2021/11/08 15:34:10;;;;;;;11.25;3.83;;;;;;;10.96;66.64;100887.25;10333024;28;20605;-62
2021/11/08 15:39:15;;;;;;;13.27;4.07;;;;;;;10.85;67.76;100874.69;10338496;28;20088;-63
2021/11/08 15:44:16;;;;;;;;;;;;;;;10.90;69.48;100883.22;10341024;28;20060;-62
2021/11/08 15:49:19;;;;;;;9.55;4.05;;;;;;;10.92;70.07;100885.78;10345782;28;19925;-63
2021/11/08 15:54:24;;;;;;;8.65;4.68;;;;;;;10.91;69.83;100884.94;10342707;28;20163;-61
2021/11/08 15:59:26;;;;;;;11.05;3.92;;;;;;;10.90;69.30;100893.00;10340438;28;20042;-61
2021/11/08 16:04:27;;;;;;;11.50;4.30;;;;;;;10.78;69.57;100894.75;10334108;28;20098;-64
2021/11/08 16:09:29;;;;;;;12.98;5.13;;;;;;;10.77;69.84;100898.38;10332834;28;20781;-63
2021/11/08 16:14:31;;;;;;;9.85;3.88;;;;;;;10.76;69.93;100909.97;10334699;28;20204;-63
2021/11/08 16:19:33;;;;;;;11.95;4.22;;;;;;;10.82;71.19;100909.53;10336810;28;20049;-63
2021/11/08 16:24:35;;;;;;;10.43;5.65;;;;;;;10.77;70.27;100909.03;10330361;28;20049;-63
2021/11/08 16:29:36;;;;;;;13.55;8.23;;;;;;;10.75;70.45;100910.94;10335764;28;20046;-63
2021/11/08 16:34:38;;;;;;;40.45;35.22;;;;;;;10.68;70.10;100917.66;10330303;28;20133;-63
2021/11/08 16:39:39;;;;;;;70.07;57.45;;;;;;;10.64;70.40;100911.69;10334660;28;20064;-62
2021/11/08 16:44:41;;;;;;;13.10;7.97;;;;;;;10.58;69.97;100910.31;10326604;28;21530;-63
2021/11/08 16:49:43;;;;;;;35.80;20.77;;;;;;;10.52;71.03;100916.06;10329193;28;20045;-62
2021/11/08 16:54:44;;;;;;;14.55;7.00;;;;;;;10.55;70.58;100921.19;10333612;28;20204;-63
2021/11/08 16:59:48;;;;;;;12.18;6.38;;;;;;;10.60;70.68;100929.69;10333227;28;20053;-62
2021/11/08 17:04:52;;;;;;;15.18;8.95;;;;;;;10.59;71.00;100938.63;10331032;28;20053;-63
2021/11/08 17:10:07;;;;;;;11.05;6.70;;;;;;;10.60;71.32;100939.50;10334883;28;20057;-62
2021/11/08 17:15:08;;;;;;;10.68;5.90;;;;;;;10.63;71.04;100959.72;10332599;28;20048;-62
2021/11/08 17:20:12;;;;;;;12.02;7.22;;;;;;;10.65;70.74;100963.97;10333678;28;20057;-63
2021/11/08 17:25:14;;;;;;;12.63;6.90;;;;;;;10.61;70.65;100966.03;10325364;28;20057;-62
2021/11/08 17:30:17;;;;;;;11.70;6.35;;;;;;;10.56;69.84;100970.78;10335176;28;20904;-62
2021/11/08 17:35:18;;;;;;;14.07;7.28;;;;;;;10.64;70.50;100972.91;10331913;28;21635;-62
2021/11/08 17:40:20;;;;;;;15.38;7.68;;;;;;;10.65;70.75;100974.63;10338980;28;20053;-62
2021/11/08 17:45:22;;;;;;;23.60;13.95;;;;;;;10.58;70.94;100984.88;10331662;28;20073;-62
2021/11/08 17:50:25;;;;;;;14.32;9.32;;;;;;;10.64;71.16;100985.38;10325585;28;20091;-61
2021/11/08 17:55:29;;;;;;;14.80;8.52;;;;;;;10.58;70.69;100984.00;10330676;28;20041;-61
2021/11/08 18:00:32;;;;;;;8.73;4.30;;;;;;;10.59;69.78;100991.88;10328945;28;20046;-61
2021/11/08 18:05:35;;;;;;;13.20;6.32;;;;;;;10.52;70.52;101000.41;10334862;28;20160;-62
2021/11/08 18:10:37;;;;;;;12.70;6.75;;;;;;;10.51;69.63;101004.88;10325089;28;20613;-62
2021/11/08 18:15:40;;;;;;;11.93;7.20;;;;;;;10.50;70.31;101007.66;10312714;28;20566;-61
2021/11/08 18:30:52;;;;;;;13.48;6.55;;;;;;;10.49;69.25;101022.75;10319704;28;20476;-62
2021/11/08 18:35:56;;;;;;;16.25;7.57;;;;;;;10.44;70.85;101031.03;10334941;28;20076;-61
2021/11/08 18:40:57;;;;;;;21.02;9.07;;;;;;;10.44;72.10;101031.03;10327194;28;20896;-61
2021/11/08 18:46:00;;;;;;;32.53;19.98;;;;;;;10.44;70.18;101030.19;10331027;28;20077;-63
2021/11/08 18:51:04;;;;;;;17.38;9.20;;;;;;;10.47;70.41;101024.66;10322641;28;20092;-62
2021/11/08 18:56:07;;;;;;;19.23;7.10;;;;;;;10.46;69.97;101017.63;10328062;28;20164;-62
2021/11/08 19:01:11;;;;;;;11.85;6.00;;;;;;;10.42;69.61;101021.47;10325891;28;20130;-61
2021/11/08 19:06:26;;;;;;;24.20;12.65;;;;;;;10.37;69.75;101023.56;10328678;28;20054;-66
2021/11/08 19:11:33;;;;;;;16.23;7.77;;;;;;;10.43;70.33;101029.34;10326468;28;20065;-64
2021/11/08 19:16:37;;;;;;;13.68;7.70;;;;;;;10.39;69.90;101017.19;10320731;28;20066;-63
2021/11/08 19:21:39;;;;;;;12.60;6.70;;;;;;;10.47;70.14;101030.00;10326037;28;20145;-65
2021/11/08 19:26:41;;;;;;;12.02;7.45;;;;;;;10.48;70.48;101030.84;10324627;28;20050;-63
2021/11/08 19:31:46;;;;;;;10.73;6.32;;;;;;;10.42;70.09;101040.94;10328112;28;20073;-63
2021/11/08 19:42:08;;;;;;;11.25;6.50;;;;;;;10.40;69.90;101039.34;10327432;28;20053;-62
2021/11/08 19:47:10;;;;;;;15.50;6.63;;;;;;;10.48;70.85;101037.03;10327309;28;20090;-64
2021/11/08 19:52:12;;;;;;;10.57;6.15;;;;;;;10.54;70.91;101036.63;10325557;28;20108;-63
2021/11/08 19:57:14;;;;;;;11.13;5.55;;;;;;;10.57;69.22;101040.88;10331530;28;20046;-63
2021/11/08 20:02:15;;;;;;;13.18;5.93;;;;;;;10.50;69.16;101050.22;10331031;28;20869;-62
2021/11/08 20:07:25;;;;;;;14.02;5.28;;;;;;;10.54;69.42;101052.59;10323385;28;20045;-63
2021/11/08 20:12:30;;;;;;;13.05;6.40;;;;;;;10.59;68.90;101063.75;10319292;28;20049;-63
2021/11/08 20:17:31;;;;;;;10.07;5.93;;;;;;;10.61;68.56;101075.19;10325044;28;20053;-63
2021/11/08 20:22:33;;;;;;;18.10;6.82;;;;;;;10.68;69.99;101080.09;10315907;28;20562;-63
2021/11/08 20:27:35;;;;;;;12.80;6.07;;;;;;;10.71;70.25;101067.41;10330222;28;20538;-63
2021/11/08 20:59:21;;;;;;;;;;;;;;;10.57;72.72;101073.66;10328996;28;20052;-63
2021/11/08 21:04:37;;;;;;;13.05;7.95;;;;;;;10.56;72.31;101066.63;10315970;23;19932;-58
2021/11/08 21:14:43;;;;;;;14.25;7.88;;;;;;;10.56;72.89;101071.97;10292992;28;20081;-58
2021/11/08 21:19:45;;;;;;;14.52;7.18;;;;;;;10.55;73.27;101067.59;10287420;28;20100;-58
2021/11/08 21:24:48;;;;;;;12.70;8.23;;;;;;;10.60;73.10;101077.94;10290258;28;20138;-59
2021/11/08 21:40:13;;;;;;;12.07;8.00;;;;;;;10.52;73.92;101097.06;10280356;28;20073;-59
2021/11/08 21:45:15;;;;;;;13.50;7.95;;;;;;;10.61;73.82;101096.47;10279293;28;20050;-59
2021/11/08 21:50:17;;;;;;;18.05;8.57;;;;;;;10.58;73.73;101094.03;10273710;28;20074;-59
2021/11/08 21:55:21;;;;;;;16.08;8.70;;;;;;;10.48;73.76;101084.06;10266014;28;20077;-58
2021/11/08 22:00:25;;;;;;;14.23;10.00;;;;;;;10.35;74.63;101097.34;10280554;28;20054;-58
2021/11/08 22:05:28;;;;;;;16.02;10.52;;;;;;;10.28;74.86;101091.53;10267374;28;20290;-57
2021/11/08 22:10:30;;;;;;;15.75;10.10;;;;;;;10.23;74.84;101107.81;10283414;28;20050;-61
2021/11/08 22:15:32;;;;;;;15.95;9.90;;;;;;;10.21;74.85;101100.91;10281549;28;20042;-59
2021/11/08 22:20:37;;;;;;;15.30;9.32;;;;;;;10.24;75.09;101109.53;10283217;28;20077;-59
2021/11/08 22:25:39;;;;;;;13.45;9.48;;;;;;;10.13;75.03;101105.84;10282793;28;20054;-57
2021/11/08 22:30:41;;;;;;;13.55;8.82;;;;;;;10.09;75.20;101099.88;10270762;28;20051;-60
2021/11/08 22:35:46;;;;;;;16.65;10.93;;;;;;;9.99;75.61;101093.47;10278120;28;20046;-59
2021/11/08 22:40:48;;;;;;;15.63;10.65;;;;;;;9.95;75.91;101091.94;10281425;28;20054;-58
2021/11/08 22:45:50;;;;;;;13.27;9.95;;;;;;;9.93;76.29;101107.16;10267286;28;20342;-58
2021/11/08 22:50:51;;;;;;;13.88;9.45;;;;;;;9.86;76.41;101104.88;10274446;28;20054;-60
2021/11/08 22:55:53;;;;;;;11.80;8.52;;;;;;;9.80;76.27;101104.41;10264496;28;20054;-59
2021/11/08 23:01:02;;;;;;;14.60;10.13;;;;;;;9.80;76.72;101104.41;10271604;28;20066;-57
2021/11/08 23:06:05;;;;;;;13.70;9.55;;;;;;;9.77;76.85;101118.75;10283814;28;20042;-57
2021/11/08 23:11:07;;;;;;;12.50;9.52;;;;;;;9.73;76.50;101114.59;10277076;28;20061;-58
2021/11/08 23:16:11;;;;;;;15.40;9.30;;;;;;;9.69;77.14;101124.56;10277421;28;20046;-57
2021/11/08 23:21:14;;;;;;;13.07;8.77;;;;;;;9.64;76.92;101137.28;10279406;28;20097;-57
2021/11/08 23:26:17;;;;;;;14.07;9.43;;;;;;;9.63;77.10;101119.63;10276090;28;20117;-58
2021/11/08 23:31:19;;;;;;;14.02;9.77;;;;;;;9.51;77.51;101125.72;10279116;28;20672;-59
2021/11/08 23:36:22;;;;;;;15.07;10.18;;;;;;;9.52;77.58;101124.78;10277846;28;20058;-59
2021/11/08 23:41:24;;;;;;;14.30;8.25;;;;;;;9.53;77.30;101121.16;10282786;28;20042;-58
2021/11/08 23:46:25;;;;;;;12.20;8.73;;;;;;;9.47;77.05;101124.19;10282236;28;20046;-57
2021/11/08 23:51:27;;;;;;;16.42;10.07;;;;;;;9.38;77.44;101122.94;10285736;28;20046;-59
2021/11/08 23:56:29;;;;;;;13.57;9.75;;;;;;;9.32;77.84;101121.53;10284522;28;20391;-57
